sensor_id;sensor_type;location;lat;lon;timestamp;P1;durP1;ratioP1;P2;durP2;ratioP2
12603;SDS011;6367;52.508;13.284;2022-10-23T00:01:22;6.60;;;4.73;;
12603;SDS011;6367;52.508;13.284;2022-10-23T00:03:54;6.47;;;5.30;;
12603;SDS011;6367;52.508;13.284;2022-10-23T00:06:25;8.63;;;5.93;;
12603;SDS011;6367;52.508;13.284;2022-10-23T00:08:52;4.80;;;4.40;;
12603;SDS011;6367;52.508;13.284;2022-10-23T00:11:21;5.80;;;5.30;;
12603;SDS011;6367;52.508;13.284;2022-10-23T00:13:48;5.77;;;4.53;;
12603;SDS011;6367;52.508;13.284;2022-10-23T00:16:14;8.93;;;4.70;;
12603;SDS011;6367;52.508;13.284;2022-10-23T00:18:40;8.80;;;4.83;;
12603;SDS011;6367;52.508;13.284;2022-10-23T00:21:07;6.47;;;5.70;;
12603;SDS011;6367;52.508;13.284;2022-10-23T00:23:34;5.97;;;5.40;;
12603;SDS011;6367;52.508;13.284;2022-10-23T00:26:00;8.00;;;5.90;;
12603;SDS011;6367;52.508;13.284;2022-10-23T00:28:26;6.13;;;5.10;;
12603;SDS011;6367;52.508;13.284;2022-10-23T00:30:52;5.63;;;5.07;;
12603;SDS011;6367;52.508;13.284;2022-10-23T00:33:17;5.43;;;4.67;;
12603;SDS011;6367;52.508;13.284;2022-10-23T00:35:43;7.10;;;5.03;;
12603;SDS011;6367;52.508;13.284;2022-10-23T00:38:09;8.80;;;5.70;;
12603;SDS011;6367;52.508;13.284;2022-10-23T00:40:35;9.77;;;5.47;;
12603;SDS011;6367;52.508;13.284;2022-10-23T00:43:02;5.37;;;4.87;;
12603;SDS011;6367;52.508;13.284;2022-10-23T00:45:28;5.50;;;5.10;;
12603;SDS011;6367;52.508;13.284;2022-10-23T00:48:01;6.47;;;5.10;;
12603;SDS011;6367;52.508;13.284;2022-10-23T00:50:28;6.23;;;5.30;;
12603;SDS011;6367;52.508;13.284;2022-10-23T00:52:56;4.77;;;4.33;;
12603;SDS011;6367;52.508;13.284;2022-10-23T00:55:25;5.37;;;4.87;;
12603;SDS011;6367;52.508;13.284;2022-10-23T00:57:52;5.87;;;4.90;;
12603;SDS011;6367;52.508;13.284;2022-10-23T01:00:19;5.53;;;5.03;;
12603;SDS011;6367;52.508;13.284;2022-10-23T01:02:51;5.47;;;4.73;;
12603;SDS011;6367;52.508;13.284;2022-10-23T01:05:19;5.80;;;4.70;;
12603;SDS011;6367;52.508;13.284;2022-10-23T01:07:51;5.27;;;4.70;;
12603;SDS011;6367;52.508;13.284;2022-10-23T01:10:29;4.63;;;4.10;;
12603;SDS011;6367;52.508;13.284;2022-10-23T01:13:13;5.50;;;4.87;;
12603;SDS011;6367;52.508;13.284;2022-10-23T01:15:47;6.00;;;5.40;;
12603;SDS011;6367;52.508;13.284;2022-10-23T01:20:55;6.83;;;4.40;;
12603;SDS011;6367;52.508;13.284;2022-10-23T01:32:12;5.87;;;4.93;;
12603;SDS011;6367;52.508;13.284;2022-10-23T01:37:11;5.37;;;4.80;;
12603;SDS011;6367;52.508;13.284;2022-10-23T01:39:40;8.03;;;5.50;;
12603;SDS011;6367;52.508;13.284;2022-10-23T01:42:12;5.37;;;4.50;;
12603;SDS011;6367;52.508;13.284;2022-10-23T01:44:48;10.03;;;5.60;;
12603;SDS011;6367;52.508;13.284;2022-10-23T01:47:19;5.37;;;4.90;;
12603;SDS011;6367;52.508;13.284;2022-10-23T01:49:49;6.17;;;5.10;;
12603;SDS011;6367;52.508;13.284;2022-10-23T01:52:16;6.73;;;5.97;;
12603;SDS011;6367;52.508;13.284;2022-10-23T01:54:43;7.00;;;6.07;;
12603;SDS011;6367;52.508;13.284;2022-10-23T01:57:12;5.90;;;5.30;;
12603;SDS011;6367;52.508;13.284;2022-10-23T01:59:43;5.50;;;5.00;;
12603;SDS011;6367;52.508;13.284;2022-10-23T02:02:12;6.20;;;5.20;;
12603;SDS011;6367;52.508;13.284;2022-10-23T02:04:40;6.00;;;5.40;;
12603;SDS011;6367;52.508;13.284;2022-10-23T02:07:11;6.57;;;5.20;;
12603;SDS011;6367;52.508;13.284;2022-10-23T02:09:37;6.33;;;5.20;;
12603;SDS011;6367;52.508;13.284;2022-10-23T02:12:12;6.13;;;5.30;;
12603;SDS011;6367;52.508;13.284;2022-10-23T02:17:36;6.53;;;5.60;;
12603;SDS011;6367;52.508;13.284;2022-10-23T02:26:23;6.27;;;5.77;;
12603;SDS011;6367;52.508;13.284;2022-10-23T02:28:47;6.10;;;5.60;;
12603;SDS011;6367;52.508;13.284;2022-10-23T02:31:16;5.40;;;5.00;;
12603;SDS011;6367;52.508;13.284;2022-10-23T02:33:46;5.63;;;5.03;;
12603;SDS011;6367;52.508;13.284;2022-10-23T02:36:12;6.37;;;5.13;;
12603;SDS011;6367;52.508;13.284;2022-10-23T02:38:39;5.40;;;4.90;;
12603;SDS011;6367;52.508;13.284;2022-10-23T02:41:10;5.50;;;5.00;;
12603;SDS011;6367;52.508;13.284;2022-10-23T02:43:53;6.70;;;4.80;;
12603;SDS011;6367;52.508;13.284;2022-10-23T02:46:49;7.13;;;5.77;;
12603;SDS011;6367;52.508;13.284;2022-10-23T02:52:13;7.83;;;5.67;;
12603;SDS011;6367;52.508;13.284;2022-10-23T02:55:07;5.93;;;5.33;;
12603;SDS011;6367;52.508;13.284;2022-10-23T03:00:25;6.87;;;5.90;;
12603;SDS011;6367;52.508;13.284;2022-10-23T03:02:56;7.50;;;5.80;;
12603;SDS011;6367;52.508;13.284;2022-10-23T03:05:34;6.57;;;5.70;;
12603;SDS011;6367;52.508;13.284;2022-10-23T03:08:03;6.33;;;5.20;;
12603;SDS011;6367;52.508;13.284;2022-10-23T03:10:32;7.00;;;6.30;;
12603;SDS011;6367;52.508;13.284;2022-10-23T03:12:57;7.33;;;5.73;;
12603;SDS011;6367;52.508;13.284;2022-10-23T03:15:23;6.97;;;6.17;;
12603;SDS011;6367;52.508;13.284;2022-10-23T03:17:48;8.77;;;6.40;;
12603;SDS011;6367;52.508;13.284;2022-10-23T03:20:14;6.50;;;5.40;;
12603;SDS011;6367;52.508;13.284;2022-10-23T03:22:40;6.10;;;5.50;;
12603;SDS011;6367;52.508;13.284;2022-10-23T03:25:05;8.13;;;6.20;;
12603;SDS011;6367;52.508;13.284;2022-10-23T03:27:31;8.20;;;6.63;;
12603;SDS011;6367;52.508;13.284;2022-10-23T03:29:57;6.50;;;5.90;;
12603;SDS011;6367;52.508;13.284;2022-10-23T03:32:23;7.60;;;5.43;;
12603;SDS011;6367;52.508;13.284;2022-10-23T03:34:48;7.07;;;5.80;;
12603;SDS011;6367;52.508;13.284;2022-10-23T03:37:14;7.20;;;6.50;;
12603;SDS011;6367;52.508;13.284;2022-10-23T03:39:39;6.97;;;5.97;;
12603;SDS011;6367;52.508;13.284;2022-10-23T03:42:05;6.97;;;6.27;;
12603;SDS011;6367;52.508;13.284;2022-10-23T03:44:30;9.10;;;6.73;;
12603;SDS011;6367;52.508;13.284;2022-10-23T03:46:58;8.83;;;6.37;;
12603;SDS011;6367;52.508;13.284;2022-10-23T03:49:23;7.47;;;6.67;;
12603;SDS011;6367;52.508;13.284;2022-10-23T03:51:49;7.30;;;5.97;;
12603;SDS011;6367;52.508;13.284;2022-10-23T03:54:23;7.97;;;6.60;;
12603;SDS011;6367;52.508;13.284;2022-10-23T03:56:50;8.83;;;6.43;;
12603;SDS011;6367;52.508;13.284;2022-10-23T03:59:16;8.80;;;6.40;;
12603;SDS011;6367;52.508;13.284;2022-10-23T04:01:41;9.07;;;6.93;;
12603;SDS011;6367;52.508;13.284;2022-10-23T04:04:07;8.40;;;6.10;;
12603;SDS011;6367;52.508;13.284;2022-10-23T04:06:33;7.33;;;6.30;;
12603;SDS011;6367;52.508;13.284;2022-10-23T04:08:59;6.53;;;5.93;;
12603;SDS011;6367;52.508;13.284;2022-10-23T04:11:25;7.50;;;6.43;;
12603;SDS011;6367;52.508;13.284;2022-10-23T04:13:50;6.30;;;5.70;;
12603;SDS011;6367;52.508;13.284;2022-10-23T04:16:16;11.87;;;6.30;;
12603;SDS011;6367;52.508;13.284;2022-10-23T04:18:41;8.73;;;6.20;;
12603;SDS011;6367;52.508;13.284;2022-10-23T04:21:07;7.07;;;6.13;;
12603;SDS011;6367;52.508;13.284;2022-10-23T04:23:33;6.00;;;5.50;;
12603;SDS011;6367;52.508;13.284;2022-10-23T04:25:58;9.20;;;6.47;;
12603;SDS011;6367;52.508;13.284;2022-10-23T04:28:24;7.10;;;5.87;;
12603;SDS011;6367;52.508;13.284;2022-10-23T04:30:50;8.97;;;6.43;;
12603;SDS011;6367;52.508;13.284;2022-10-23T04:33:16;7.77;;;5.77;;
12603;SDS011;6367;52.508;13.284;2022-10-23T04:35:42;10.03;;;6.53;;
12603;SDS011;6367;52.508;13.284;2022-10-23T04:38:08;9.93;;;7.07;;
12603;SDS011;6367;52.508;13.284;2022-10-23T04:40:33;11.70;;;7.40;;
12603;SDS011;6367;52.508;13.284;2022-10-23T04:42:59;7.90;;;7.10;;
12603;SDS011;6367;52.508;13.284;2022-10-23T04:45:25;6.93;;;6.33;;
12603;SDS011;6367;52.508;13.284;2022-10-23T04:47:50;8.37;;;7.07;;
12603;SDS011;6367;52.508;13.284;2022-10-23T04:50:17;9.70;;;6.77;;
12603;SDS011;6367;52.508;13.284;2022-10-23T04:52:44;9.70;;;7.30;;
12603;SDS011;6367;52.508;13.284;2022-10-23T04:55:10;10.53;;;7.13;;
12603;SDS011;6367;52.508;13.284;2022-10-23T04:57:36;8.40;;;6.67;;
12603;SDS011;6367;52.508;13.284;2022-10-23T05:00:04;6.57;;;6.07;;
12603;SDS011;6367;52.508;13.284;2022-10-23T05:02:31;10.40;;;7.70;;
12603;SDS011;6367;52.508;13.284;2022-10-23T05:04:56;9.27;;;7.50;;
12603;SDS011;6367;52.508;13.284;2022-10-23T05:07:22;8.60;;;7.80;;
12603;SDS011;6367;52.508;13.284;2022-10-23T05:09:47;8.50;;;7.33;;
12603;SDS011;6367;52.508;13.284;2022-10-23T05:12:13;8.17;;;7.37;;
12603;SDS011;6367;52.508;13.284;2022-10-23T05:14:39;7.43;;;6.83;;
12603;SDS011;6367;52.508;13.284;2022-10-23T05:17:11;11.10;;;8.00;;
12603;SDS011;6367;52.508;13.284;2022-10-23T05:19:42;8.57;;;6.93;;
12603;SDS011;6367;52.508;13.284;2022-10-23T05:22:11;7.57;;;6.87;;
12603;SDS011;6367;52.508;13.284;2022-10-23T05:24:37;9.03;;;7.00;;
12603;SDS011;6367;52.508;13.284;2022-10-23T05:27:03;7.50;;;6.33;;
12603;SDS011;6367;52.508;13.284;2022-10-23T05:29:29;9.13;;;7.97;;
12603;SDS011;6367;52.508;13.284;2022-10-23T05:31:56;7.10;;;6.30;;
12603;SDS011;6367;52.508;13.284;2022-10-23T05:34:25;11.90;;;8.00;;
12603;SDS011;6367;52.508;13.284;2022-10-23T05:36:52;8.37;;;7.53;;
12603;SDS011;6367;52.508;13.284;2022-10-23T05:39:18;9.30;;;6.60;;
12603;SDS011;6367;52.508;13.284;2022-10-23T05:41:44;9.33;;;7.57;;
12603;SDS011;6367;52.508;13.284;2022-10-23T05:44:10;7.53;;;6.80;;
12603;SDS011;6367;52.508;13.284;2022-10-23T05:46:39;8.50;;;7.70;;
12603;SDS011;6367;52.508;13.284;2022-10-23T05:49:06;7.40;;;6.70;;
12603;SDS011;6367;52.508;13.284;2022-10-23T05:51:34;9.93;;;7.57;;
12603;SDS011;6367;52.508;13.284;2022-10-23T05:54:01;7.53;;;6.80;;
12603;SDS011;6367;52.508;13.284;2022-10-23T05:56:27;7.43;;;6.73;;
12603;SDS011;6367;52.508;13.284;2022-10-23T05:58:52;7.43;;;6.73;;
12603;SDS011;6367;52.508;13.284;2022-10-23T06:01:18;7.97;;;6.77;;
12603;SDS011;6367;52.508;13.284;2022-10-23T06:03:43;8.70;;;7.60;;
12603;SDS011;6367;52.508;13.284;2022-10-23T06:06:09;9.70;;;8.07;;
12603;SDS011;6367;52.508;13.284;2022-10-23T06:08:35;12.70;;;7.07;;
12603;SDS011;6367;52.508;13.284;2022-10-23T06:11:04;8.67;;;7.20;;
12603;SDS011;6367;52.508;13.284;2022-10-23T06:13:34;7.70;;;7.00;;
12603;SDS011;6367;52.508;13.284;2022-10-23T06:16:06;7.77;;;7.07;;
12603;SDS011;6367;52.508;13.284;2022-10-23T06:18:33;10.80;;;7.40;;
12603;SDS011;6367;52.508;13.284;2022-10-23T06:20:59;8.43;;;7.63;;
12603;SDS011;6367;52.508;13.284;2022-10-23T06:23:25;8.17;;;7.43;;
12603;SDS011;6367;52.508;13.284;2022-10-23T06:25:51;9.10;;;8.30;;
12603;SDS011;6367;52.508;13.284;2022-10-23T06:28:20;11.80;;;8.43;;
12603;SDS011;6367;52.508;13.284;2022-10-23T06:30:46;7.83;;;7.23;;
12603;SDS011;6367;52.508;13.284;2022-10-23T06:33:12;8.00;;;7.20;;
12603;SDS011;6367;52.508;13.284;2022-10-23T06:35:37;8.43;;;7.70;;
12603;SDS011;6367;52.508;13.284;2022-10-23T06:38:03;9.67;;;8.03;;
12603;SDS011;6367;52.508;13.284;2022-10-23T06:40:28;9.37;;;7.97;;
12603;SDS011;6367;52.508;13.284;2022-10-23T06:42:54;8.63;;;7.70;;
12603;SDS011;6367;52.508;13.284;2022-10-23T06:45:21;8.63;;;7.93;;
12603;SDS011;6367;52.508;13.284;2022-10-23T06:47:48;7.80;;;7.10;;
12603;SDS011;6367;52.508;13.284;2022-10-23T06:50:15;8.57;;;7.70;;
12603;SDS011;6367;52.508;13.284;2022-10-23T06:52:40;9.57;;;8.67;;
12603;SDS011;6367;52.508;13.284;2022-10-23T06:55:06;8.33;;;7.53;;
12603;SDS011;6367;52.508;13.284;2022-10-23T06:57:32;8.33;;;7.53;;
12603;SDS011;6367;52.508;13.284;2022-10-23T06:59:57;9.50;;;8.70;;
12603;SDS011;6367;52.508;13.284;2022-10-23T07:02:23;8.10;;;7.30;;
12603;SDS011;6367;52.508;13.284;2022-10-23T07:04:48;10.97;;;9.73;;
12603;SDS011;6367;52.508;13.284;2022-10-23T07:07:14;8.97;;;8.17;;
12603;SDS011;6367;52.508;13.284;2022-10-23T07:09:40;8.90;;;7.83;;
12603;SDS011;6367;52.508;13.284;2022-10-23T07:12:05;8.73;;;7.83;;
12603;SDS011;6367;52.508;13.284;2022-10-23T07:14:31;10.30;;;9.40;;
12603;SDS011;6367;52.508;13.284;2022-10-23T07:16:57;8.90;;;7.90;;
12603;SDS011;6367;52.508;13.284;2022-10-23T07:19:23;9.77;;;8.37;;
12603;SDS011;6367;52.508;13.284;2022-10-23T07:21:49;9.43;;;8.53;;
12603;SDS011;6367;52.508;13.284;2022-10-23T07:24:15;9.27;;;8.37;;
12603;SDS011;6367;52.508;13.284;2022-10-23T07:26:41;9.70;;;8.13;;
12603;SDS011;6367;52.508;13.284;2022-10-23T07:29:08;9.93;;;8.10;;
12603;SDS011;6367;52.508;13.284;2022-10-23T07:31:37;8.40;;;7.53;;
12603;SDS011;6367;52.508;13.284;2022-10-23T07:34:06;7.37;;;6.77;;
12603;SDS011;6367;52.508;13.284;2022-10-23T07:36:31;11.17;;;9.27;;
12603;SDS011;6367;52.508;13.284;2022-10-23T07:38:57;11.27;;;10.10;;
12603;SDS011;6367;52.508;13.284;2022-10-23T07:41:22;12.67;;;10.77;;
12603;SDS011;6367;52.508;13.284;2022-10-23T07:43:51;18.80;;;14.20;;
12603;SDS011;6367;52.508;13.284;2022-10-23T07:46:16;17.73;;;12.60;;
12603;SDS011;6367;52.508;13.284;2022-10-23T07:48:42;11.60;;;10.50;;
12603;SDS011;6367;52.508;13.284;2022-10-23T07:51:10;10.60;;;9.47;;
12603;SDS011;6367;52.508;13.284;2022-10-23T07:53:37;15.00;;;11.17;;
12603;SDS011;6367;52.508;13.284;2022-10-23T07:56:09;12.67;;;8.90;;
12603;SDS011;6367;52.508;13.284;2022-10-23T07:58:38;8.93;;;8.13;;
12603;SDS011;6367;52.508;13.284;2022-10-23T08:01:05;10.53;;;9.13;;
12603;SDS011;6367;52.508;13.284;2022-10-23T08:03:48;9.47;;;8.50;;
12603;SDS011;6367;52.508;13.284;2022-10-23T08:06:14;9.50;;;8.40;;
12603;SDS011;6367;52.508;13.284;2022-10-23T08:08:39;7.87;;;7.17;;
12603;SDS011;6367;52.508;13.284;2022-10-23T08:11:05;10.50;;;7.97;;
12603;SDS011;6367;52.508;13.284;2022-10-23T08:13:31;9.37;;;8.43;;
12603;SDS011;6367;52.508;13.284;2022-10-23T08:15:57;7.97;;;7.13;;
12603;SDS011;6367;52.508;13.284;2022-10-23T08:18:23;8.43;;;7.63;;
12603;SDS011;6367;52.508;13.284;2022-10-23T08:20:48;9.10;;;8.30;;
12603;SDS011;6367;52.508;13.284;2022-10-23T08:23:16;8.00;;;7.30;;
12603;SDS011;6367;52.508;13.284;2022-10-23T08:25:43;9.97;;;8.30;;
12603;SDS011;6367;52.508;13.284;2022-10-23T08:28:09;7.37;;;6.57;;
12603;SDS011;6367;52.508;13.284;2022-10-23T08:30:36;7.20;;;6.50;;
12603;SDS011;6367;52.508;13.284;2022-10-23T08:33:03;6.63;;;5.90;;
12603;SDS011;6367;52.508;13.284;2022-10-23T08:35:29;7.00;;;6.30;;
12603;SDS011;6367;52.508;13.284;2022-10-23T08:37:55;6.30;;;5.67;;
12603;SDS011;6367;52.508;13.284;2022-10-23T08:40:21;5.57;;;5.07;;
12603;SDS011;6367;52.508;13.284;2022-10-23T08:43:34;5.63;;;5.13;;
12603;SDS011;6367;52.508;13.284;2022-10-23T08:45:35;6.70;;;6.00;;
12603;SDS011;6367;52.508;13.284;2022-10-23T08:50:55;8.13;;;4.83;;
12603;SDS011;6367;52.508;13.284;2022-10-23T08:53:39;6.00;;;5.43;;
12603;SDS011;6367;52.508;13.284;2022-10-23T08:56:13;7.63;;;6.17;;
12603;SDS011;6367;52.508;13.284;2022-10-23T09:02:01;8.10;;;6.07;;
12603;SDS011;6367;52.508;13.284;2022-10-23T09:04:31;5.80;;;4.93;;
12603;SDS011;6367;52.508;13.284;2022-10-23T09:07:14;5.80;;;4.90;;
12603;SDS011;6367;52.508;13.284;2022-10-23T09:12:28;4.23;;;3.80;;
12603;SDS011;6367;52.508;13.284;2022-10-23T09:15:03;5.00;;;3.73;;
12603;SDS011;6367;52.508;13.284;2022-10-23T09:17:34;6.10;;;4.13;;
12603;SDS011;6367;52.508;13.284;2022-10-23T09:22:44;6.93;;;4.40;;
12603;SDS011;6367;52.508;13.284;2022-10-23T09:25:16;6.77;;;4.03;;
12603;SDS011;6367;52.508;13.284;2022-10-23T09:27:55;3.90;;;3.50;;
12603;SDS011;6367;52.508;13.284;2022-10-23T09:31:04;7.50;;;3.77;;
12603;SDS011;6367;52.508;13.284;2022-10-23T09:33:17;3.63;;;3.30;;
12603;SDS011;6367;52.508;13.284;2022-10-23T09:38:26;4.40;;;3.20;;
12603;SDS011;6367;52.508;13.284;2022-10-23T09:40:52;4.20;;;3.53;;
12603;SDS011;6367;52.508;13.284;2022-10-23T09:43:18;3.60;;;2.80;;
12603;SDS011;6367;52.508;13.284;2022-10-23T09:45:54;3.83;;;2.90;;
12603;SDS011;6367;52.508;13.284;2022-10-23T09:48:21;4.37;;;3.63;;
12603;SDS011;6367;52.508;13.284;2022-10-23T09:50:52;3.50;;;3.20;;
12603;SDS011;6367;52.508;13.284;2022-10-23T09:53:27;5.77;;;3.10;;
12603;SDS011;6367;52.508;13.284;2022-10-23T09:56:27;7.27;;;3.73;;
12603;SDS011;6367;52.508;13.284;2022-10-23T09:58:56;4.73;;;3.10;;
12603;SDS011;6367;52.508;13.284;2022-10-23T10:01:28;3.13;;;2.70;;
12603;SDS011;6367;52.508;13.284;2022-10-23T10:03:57;3.93;;;3.00;;
12603;SDS011;6367;52.508;13.284;2022-10-23T10:06:24;2.57;;;2.20;;
12603;SDS011;6367;52.508;13.284;2022-10-23T10:08:53;5.00;;;2.70;;
12603;SDS011;6367;52.508;13.284;2022-10-23T10:14:17;3.67;;;2.30;;
12603;SDS011;6367;52.508;13.284;2022-10-23T10:16:50;5.03;;;2.57;;
12603;SDS011;6367;52.508;13.284;2022-10-23T10:28:04;3.70;;;2.60;;
12603;SDS011;6367;52.508;13.284;2022-10-23T10:33:27;2.83;;;2.13;;
12603;SDS011;6367;52.508;13.284;2022-10-23T10:39:09;5.30;;;2.53;;
12603;SDS011;6367;52.508;13.284;2022-10-23T10:49:50;3.67;;;2.47;;
12603;SDS011;6367;52.508;13.284;2022-10-23T10:52:33;5.73;;;2.50;;
12603;SDS011;6367;52.508;13.284;2022-10-23T10:55:17;3.40;;;3.00;;
12603;SDS011;6367;52.508;13.284;2022-10-23T10:57:49;4.23;;;2.60;;
12603;SDS011;6367;52.508;13.284;2022-10-23T11:00:28;6.13;;;2.87;;
12603;SDS011;6367;52.508;13.284;2022-10-23T11:05:58;5.93;;;2.77;;
12603;SDS011;6367;52.508;13.284;2022-10-23T11:08:34;3.20;;;2.13;;
12603;SDS011;6367;52.508;13.284;2022-10-23T11:11:06;3.17;;;2.20;;
12603;SDS011;6367;52.508;13.284;2022-10-23T11:13:41;3.70;;;2.60;;
12603;SDS011;6367;52.508;13.284;2022-10-23T11:16:16;3.20;;;2.70;;
12603;SDS011;6367;52.508;13.284;2022-10-23T11:18:58;3.63;;;2.37;;
12603;SDS011;6367;52.508;13.284;2022-10-23T11:37:58;4.00;;;2.03;;
12603;SDS011;6367;52.508;13.284;2022-10-23T11:40:46;3.13;;;1.70;;
12603;SDS011;6367;52.508;13.284;2022-10-23T11:43:24;3.73;;;1.80;;
12603;SDS011;6367;52.508;13.284;2022-10-23T11:45:51;2.80;;;2.20;;
12603;SDS011;6367;52.508;13.284;2022-10-23T11:48:22;2.80;;;2.00;;
12603;SDS011;6367;52.508;13.284;2022-10-23T11:51:24;3.13;;;2.30;;
12603;SDS011;6367;52.508;13.284;2022-10-23T11:56:34;7.67;;;1.70;;
12603;SDS011;6367;52.508;13.284;2022-10-23T11:59:25;3.23;;;1.67;;
12603;SDS011;6367;52.508;13.284;2022-10-23T12:01:54;4.80;;;2.60;;
12603;SDS011;6367;52.508;13.284;2022-10-23T12:04:37;5.80;;;2.90;;
12603;SDS011;6367;52.508;13.284;2022-10-23T12:07:28;6.10;;;2.63;;
12603;SDS011;6367;52.508;13.284;2022-10-23T12:09:58;6.50;;;2.00;;
12603;SDS011;6367;52.508;13.284;2022-10-23T12:12:31;4.33;;;2.17;;
12603;SDS011;6367;52.508;13.284;2022-10-23T12:15:32;4.17;;;1.90;;
12603;SDS011;6367;52.508;13.284;2022-10-23T12:17:54;7.67;;;2.33;;
12603;SDS011;6367;52.508;13.284;2022-10-23T12:20:39;4.60;;;2.23;;
12603;SDS011;6367;52.508;13.284;2022-10-23T12:23:21;2.50;;;1.40;;
12603;SDS011;6367;52.508;13.284;2022-10-23T12:25:54;2.47;;;1.60;;
12603;SDS011;6367;52.508;13.284;2022-10-23T12:31:46;4.60;;;2.10;;
12603;SDS011;6367;52.508;13.284;2022-10-23T12:39:32;2.50;;;1.63;;
12603;SDS011;6367;52.508;13.284;2022-10-23T12:42:01;3.10;;;1.43;;
12603;SDS011;6367;52.508;13.284;2022-10-23T12:44:28;3.53;;;1.90;;
12603;SDS011;6367;52.508;13.284;2022-10-23T12:46:55;4.00;;;1.80;;
12603;SDS011;6367;52.508;13.284;2022-10-23T12:49:26;4.13;;;1.77;;
12603;SDS011;6367;52.508;13.284;2022-10-23T12:52:12;4.33;;;1.63;;
12603;SDS011;6367;52.508;13.284;2022-10-23T12:54:42;5.33;;;1.90;;
12603;SDS011;6367;52.508;13.284;2022-10-23T12:57:21;2.00;;;1.53;;
12603;SDS011;6367;52.508;13.284;2022-10-23T12:59:47;6.30;;;2.00;;
12603;SDS011;6367;52.508;13.284;2022-10-23T13:02:28;3.60;;;1.63;;
12603;SDS011;6367;52.508;13.284;2022-10-23T13:04:56;4.23;;;1.27;;
12603;SDS011;6367;52.508;13.284;2022-10-23T13:07:29;4.43;;;2.00;;
12603;SDS011;6367;52.508;13.284;2022-10-23T13:09:58;4.93;;;1.80;;
12603;SDS011;6367;52.508;13.284;2022-10-23T13:12:25;2.53;;;1.73;;
12603;SDS011;6367;52.508;13.284;2022-10-23T13:14:57;2.93;;;2.00;;
12603;SDS011;6367;52.508;13.284;2022-10-23T13:17:43;2.77;;;1.77;;
12603;SDS011;6367;52.508;13.284;2022-10-23T13:20:23;3.53;;;2.20;;
12603;SDS011;6367;52.508;13.284;2022-10-23T13:22:53;3.40;;;1.93;;
12603;SDS011;6367;52.508;13.284;2022-10-23T13:25:27;3.73;;;1.63;;
12603;SDS011;6367;52.508;13.284;2022-10-23T13:28:09;3.50;;;2.10;;
12603;SDS011;6367;52.508;13.284;2022-10-23T13:30:40;5.00;;;2.07;;
12603;SDS011;6367;52.508;13.284;2022-10-23T13:33:22;6.17;;;1.97;;
12603;SDS011;6367;52.508;13.284;2022-10-23T13:35:55;3.80;;;2.23;;
12603;SDS011;6367;52.508;13.284;2022-10-23T13:38:28;3.53;;;2.00;;
12603;SDS011;6367;52.508;13.284;2022-10-23T13:40:56;4.50;;;1.83;;
12603;SDS011;6367;52.508;13.284;2022-10-23T13:43:24;3.30;;;1.70;;
12603;SDS011;6367;52.508;13.284;2022-10-23T13:45:50;3.30;;;1.77;;
12603;SDS011;6367;52.508;13.284;2022-10-23T13:48:16;3.13;;;2.47;;
12603;SDS011;6367;52.508;13.284;2022-10-23T13:50:42;6.13;;;2.07;;
12603;SDS011;6367;52.508;13.284;2022-10-23T13:53:10;1.97;;;1.60;;
12603;SDS011;6367;52.508;13.284;2022-10-23T13:55:36;4.77;;;1.90;;
12603;SDS011;6367;52.508;13.284;2022-10-23T13:58:04;4.60;;;2.00;;
12603;SDS011;6367;52.508;13.284;2022-10-23T14:00:30;4.23;;;2.80;;
12603;SDS011;6367;52.508;13.284;2022-10-23T14:02:56;3.43;;;2.37;;
12603;SDS011;6367;52.508;13.284;2022-10-23T14:05:21;5.97;;;2.70;;
12603;SDS011;6367;52.508;13.284;2022-10-23T14:07:47;6.40;;;2.53;;
12603;SDS011;6367;52.508;13.284;2022-10-23T14:10:12;4.13;;;2.60;;
12603;SDS011;6367;52.508;13.284;2022-10-23T14:12:39;5.73;;;2.67;;
12603;SDS011;6367;52.508;13.284;2022-10-23T14:15:05;6.07;;;2.30;;
12603;SDS011;6367;52.508;13.284;2022-10-23T14:17:32;2.87;;;2.27;;
12603;SDS011;6367;52.508;13.284;2022-10-23T14:19:58;8.80;;;3.57;;
12603;SDS011;6367;52.508;13.284;2022-10-23T14:22:24;4.30;;;2.93;;
12603;SDS011;6367;52.508;13.284;2022-10-23T14:24:50;6.97;;;2.50;;
12603;SDS011;6367;52.508;13.284;2022-10-23T14:27:16;4.70;;;2.47;;
12603;SDS011;6367;52.508;13.284;2022-10-23T14:29:41;3.80;;;2.50;;
12603;SDS011;6367;52.508;13.284;2022-10-23T14:32:07;6.30;;;3.13;;
12603;SDS011;6367;52.508;13.284;2022-10-23T14:34:32;7.27;;;2.60;;
12603;SDS011;6367;52.508;13.284;2022-10-23T14:36:58;2.97;;;2.37;;
12603;SDS011;6367;52.508;13.284;2022-10-23T14:39:24;3.20;;;2.57;;
12603;SDS011;6367;52.508;13.284;2022-10-23T14:41:49;3.43;;;2.60;;
12603;SDS011;6367;52.508;13.284;2022-10-23T14:44:15;4.30;;;2.47;;
12603;SDS011;6367;52.508;13.284;2022-10-23T14:46:40;4.00;;;2.73;;
12603;SDS011;6367;52.508;13.284;2022-10-23T14:49:06;3.57;;;2.63;;
12603;SDS011;6367;52.508;13.284;2022-10-23T14:51:31;6.70;;;2.57;;
12603;SDS011;6367;52.508;13.284;2022-10-23T14:53:58;3.80;;;2.40;;
12603;SDS011;6367;52.508;13.284;2022-10-23T14:56:28;3.93;;;2.30;;
12603;SDS011;6367;52.508;13.284;2022-10-23T14:58:55;4.07;;;2.10;;
12603;SDS011;6367;52.508;13.284;2022-10-23T15:01:27;4.10;;;2.80;;
12603;SDS011;6367;52.508;13.284;2022-10-23T15:03:54;2.40;;;2.13;;
12603;SDS011;6367;52.508;13.284;2022-10-23T15:06:20;3.77;;;2.50;;
12603;SDS011;6367;52.508;13.284;2022-10-23T15:08:50;3.67;;;2.40;;
12603;SDS011;6367;52.508;13.284;2022-10-23T15:11:19;4.43;;;1.97;;
12603;SDS011;6367;52.508;13.284;2022-10-23T15:13:45;5.10;;;2.77;;
12603;SDS011;6367;52.508;13.284;2022-10-23T15:16:11;3.33;;;2.30;;
12603;SDS011;6367;52.508;13.284;2022-10-23T15:18:36;3.60;;;2.50;;
12603;SDS011;6367;52.508;13.284;2022-10-23T15:21:06;5.20;;;3.30;;
12603;SDS011;6367;52.508;13.284;2022-10-23T15:23:36;7.23;;;2.27;;
12603;SDS011;6367;52.508;13.284;2022-10-23T15:26:05;2.97;;;2.60;;
12603;SDS011;6367;52.508;13.284;2022-10-23T15:28:33;4.17;;;2.63;;
12603;SDS011;6367;52.508;13.284;2022-10-23T15:30:59;3.20;;;2.63;;
12603;SDS011;6367;52.508;13.284;2022-10-23T15:33:25;4.37;;;2.50;;
12603;SDS011;6367;52.508;13.284;2022-10-23T15:35:51;3.07;;;2.13;;
12603;SDS011;6367;52.508;13.284;2022-10-23T15:38:18;2.60;;;2.40;;
12603;SDS011;6367;52.508;13.284;2022-10-23T15:40:44;2.60;;;2.40;;
12603;SDS011;6367;52.508;13.284;2022-10-23T15:43:11;3.80;;;2.57;;
12603;SDS011;6367;52.508;13.284;2022-10-23T15:45:37;3.00;;;2.53;;
12603;SDS011;6367;52.508;13.284;2022-10-23T15:48:03;5.33;;;3.13;;
12603;SDS011;6367;52.508;13.284;2022-10-23T15:50:30;4.07;;;2.70;;
12603;SDS011;6367;52.508;13.284;2022-10-23T15:52:55;4.40;;;2.40;;
12603;SDS011;6367;52.508;13.284;2022-10-23T15:55:21;4.13;;;3.20;;
12603;SDS011;6367;52.508;13.284;2022-10-23T15:57:47;4.57;;;2.70;;
12603;SDS011;6367;52.508;13.284;2022-10-23T16:00:12;4.77;;;3.10;;
12603;SDS011;6367;52.508;13.284;2022-10-23T16:02:39;4.30;;;2.70;;
12603;SDS011;6367;52.508;13.284;2022-10-23T16:05:04;4.20;;;2.80;;
12603;SDS011;6367;52.508;13.284;2022-10-23T16:07:30;2.83;;;2.63;;
12603;SDS011;6367;52.508;13.284;2022-10-23T16:09:56;4.83;;;2.70;;
12603;SDS011;6367;52.508;13.284;2022-10-23T16:12:22;3.87;;;2.83;;
12603;SDS011;6367;52.508;13.284;2022-10-23T16:14:47;4.93;;;2.80;;
12603;SDS011;6367;52.508;13.284;2022-10-23T16:17:13;3.20;;;2.90;;
12603;SDS011;6367;52.508;13.284;2022-10-23T16:19:39;3.03;;;2.73;;
12603;SDS011;6367;52.508;13.284;2022-10-23T16:22:05;5.30;;;2.83;;
12603;SDS011;6367;52.508;13.284;2022-10-23T16:24:31;3.70;;;2.87;;
12603;SDS011;6367;52.508;13.284;2022-10-23T16:26:58;2.40;;;2.20;;
12603;SDS011;6367;52.508;13.284;2022-10-23T16:29:24;2.40;;;2.20;;
12603;SDS011;6367;52.508;13.284;2022-10-23T16:31:52;4.13;;;2.60;;
12603;SDS011;6367;52.508;13.284;2022-10-23T16:34:18;3.83;;;2.57;;
12603;SDS011;6367;52.508;13.284;2022-10-23T16:36:44;3.53;;;2.90;;